sensor_id;sensor_type;location;lat;lon;timestamp;pressure;altitude;pressure_sealevel;temperature;humidity
54236;BME280;40151;43.606;1.472;2023-02-21T00:00:06;99813.25;;;18.60;48.01
54236;BME280;40151;43.606;1.472;2023-02-21T00:02:50;99813.09;;;18.63;48.12
54236;BME280;40151;43.606;1.472;2023-02-21T00:05:34;99814.19;;;18.59;48.17
54236;BME280;40151;43.606;1.472;2023-02-21T00:08:18;99813.25;;;18.60;48.18
54236;BME280;40151;43.606;1.472;2023-02-21T00:11:03;99816.66;;;18.62;48.33
54236;BME280;40151;43.606;1.472;2023-02-21T00:13:47;99817.59;;;18.61;48.23
54236;BME280;40151;43.606;1.472;2023-02-21T00:16:31;99822.88;;;18.61;48.19
54236;BME280;40151;43.606;1.472;2023-02-21T00:19:15;99819.38;;;18.60;48.46
54236;BME280;40151;43.606;1.472;2023-02-21T00:21:59;99818.47;;;18.61;48.00
54236;BME280;40151;43.606;1.472;2023-02-21T00:24:43;99802.69;;;18.60;48.11
54236;BME280;40151;43.606;1.472;2023-02-21T00:27:27;99807.97;;;18.60;48.01
54236;BME280;40151;43.606;1.472;2023-02-21T00:30:11;99805.31;;;18.60;48.23
54236;BME280;40151;43.606;1.472;2023-02-21T00:32:55;99804.38;;;18.61;48.06
54236;BME280;40151;43.606;1.472;2023-02-21T00:35:38;99796.47;;;18.61;48.15
54236;BME280;40151;43.606;1.472;2023-02-21T00:38:22;99794.81;;;18.58;48.34
54236;BME280;40151;43.606;1.472;2023-02-21T00:41:06;99784.25;;;18.58;48.24
54236;BME280;40151;43.606;1.472;2023-02-21T00:43:51;99797.38;;;18.60;48.23
54236;BME280;40151;43.606;1.472;2023-02-21T00:46:35;99795.69;;;18.59;48.07
54236;BME280;40151;43.606;1.472;2023-02-21T00:49:19;99792.22;;;18.57;48.29
54236;BME280;40151;43.606;1.472;2023-02-21T00:52:03;99792.09;;;18.60;48.52
54236;BME280;40151;43.606;1.472;2023-02-21T00:54:47;99781.66;;;18.57;48.08
54236;BME280;40151;43.606;1.472;2023-02-21T00:57:31;99783.38;;;18.58;48.56
54236;BME280;40151;43.606;1.472;2023-02-21T01:00:20;99776.38;;;18.57;48.35
54236;BME280;40151;43.606;1.472;2023-02-21T01:03:05;99766.91;;;18.52;48.12
54236;BME280;40151;43.606;1.472;2023-02-21T01:05:50;99760.88;;;18.49;48.25
54236;BME280;40151;43.606;1.472;2023-02-21T01:08:34;99758.22;;;18.49;48.40
54236;BME280;40151;43.606;1.472;2023-02-21T01:11:20;99749.50;;;18.47;48.50
54236;BME280;40151;43.606;1.472;2023-02-21T01:14:06;99747.09;;;18.42;48.13
54236;BME280;40151;43.606;1.472;2023-02-21T01:16:50;99744.78;;;18.34;48.34
54236;BME280;40151;43.606;1.472;2023-02-21T01:19:34;99741.28;;;18.34;48.54
54236;BME280;40151;43.606;1.472;2023-02-21T01:22:19;99744.50;;;18.41;48.51
54236;BME280;40151;43.606;1.472;2023-02-21T01:25:03;99742.09;;;18.36;48.63
54236;BME280;40151;43.606;1.472;2023-02-21T01:27:48;99739.34;;;18.37;48.49
54236;BME280;40151;43.606;1.472;2023-02-21T01:30:32;99746.38;;;18.38;48.68
54236;BME280;40151;43.606;1.472;2023-02-21T01:33:16;99735.00;;;18.36;48.58
54236;BME280;40151;43.606;1.472;2023-02-21T01:35:59;99731.53;;;18.36;48.43
54236;BME280;40151;43.606;1.472;2023-02-21T01:38:43;99735.72;;;18.40;48.46
54236;BME280;40151;43.606;1.472;2023-02-21T01:41:27;99737.53;;;18.40;48.44
54236;BME280;40151;43.606;1.472;2023-02-21T01:47:13;99736.81;;;18.36;48.40
54236;BME280;40151;43.606;1.472;2023-02-21T01:50:00;99733.34;;;18.34;48.43
54236;BME280;40151;43.606;1.472;2023-02-21T01:52:46;99726.25;;;18.36;48.57
54236;BME280;40151;43.606;1.472;2023-02-21T01:55:31;99717.50;;;18.34;48.53
54236;BME280;40151;43.606;1.472;2023-02-21T01:58:16;99709.81;;;18.29;48.50
54236;BME280;40151;43.606;1.472;2023-02-21T02:01:01;99711.50;;;18.30;48.57
54236;BME280;40151;43.606;1.472;2023-02-21T02:03:44;99699.22;;;18.29;48.42
54236;BME280;40151;43.606;1.472;2023-02-21T02:06:29;99709.81;;;18.29;48.61
54236;BME280;40151;43.606;1.472;2023-02-21T02:09:15;99704.56;;;18.28;48.57
54236;BME280;40151;43.606;1.472;2023-02-21T02:12:25;99707.16;;;18.29;48.70
54236;BME280;40151;43.606;1.472;2023-02-21T02:37:48;99671.53;;;18.19;48.68
54236;BME280;40151;43.606;1.472;2023-02-21T02:40:42;99678.72;;;18.15;48.60
54236;BME280;40151;43.606;1.472;2023-02-21T02:43:30;99671.63;;;18.17;48.81
54236;BME280;40151;43.606;1.472;2023-02-21T02:48:46;99675.03;;;18.19;48.80
54236;BME280;40151;43.606;1.472;2023-02-21T02:51:14;99662.09;;;18.13;48.92
54236;BME280;40151;43.606;1.472;2023-02-21T02:53:40;99659.47;;;18.13;48.83
54236;BME280;40151;43.606;1.472;2023-02-21T02:56:08;99653.63;;;18.05;48.96
54236;BME280;40151;43.606;1.472;2023-02-21T02:58:42;99654.50;;;18.05;49.07
54236;BME280;40151;43.606;1.472;2023-02-21T03:15:10;99648.44;;;18.03;48.83
54236;BME280;40151;43.606;1.472;2023-02-21T03:17:45;99654.56;;;18.04;48.95
54236;BME280;40151;43.606;1.472;2023-02-21T03:20:13;99646.78;;;18.01;48.85
54236;BME280;40151;43.606;1.472;2023-02-21T03:22:42;99644.06;;;18.02;48.64
54236;BME280;40151;43.606;1.472;2023-02-21T03:25:10;99651.09;;;18.03;49.12
54236;BME280;40151;43.606;1.472;2023-02-21T03:27:37;99652.84;;;18.03;49.30
54236;BME280;40151;43.606;1.472;2023-02-21T03:30:05;99649.44;;;18.01;49.19
54236;BME280;40151;43.606;1.472;2023-02-21T03:32:36;99650.28;;;18.01;49.10
54236;BME280;40151;43.606;1.472;2023-02-21T03:35:03;99643.34;;;17.98;49.15
54236;BME280;40151;43.606;1.472;2023-02-21T03:40:08;99629.25;;;18.00;49.21
54236;BME280;40151;43.606;1.472;2023-02-21T03:42:34;99627.66;;;17.95;49.10
54236;BME280;40151;43.606;1.472;2023-02-21T03:44:59;99620.69;;;17.94;49.32
54236;BME280;40151;43.606;1.472;2023-02-21T03:47:25;99622.38;;;17.95;49.33
54236;BME280;40151;43.606;1.472;2023-02-21T03:49:50;99621.31;;;18.00;49.34
54236;BME280;40151;43.606;1.472;2023-02-21T03:52:16;99618.81;;;17.96;49.42
54236;BME280;40151;43.606;1.472;2023-02-21T03:54:41;99622.22;;;17.98;49.35
54236;BME280;40151;43.606;1.472;2023-02-21T03:57:07;99623.97;;;18.00;49.11
54236;BME280;40151;43.606;1.472;2023-02-21T03:59:32;99609.91;;;17.99;49.14
54236;BME280;40151;43.606;1.472;2023-02-21T04:01:58;99610.13;;;17.94;49.29
54236;BME280;40151;43.606;1.472;2023-02-21T04:04:23;99613.66;;;17.93;49.39
54236;BME280;40151;43.606;1.472;2023-02-21T04:06:49;99617.88;;;17.97;49.23
54236;BME280;40151;43.606;1.472;2023-02-21T04:09:14;99606.53;;;17.95;49.10
54236;BME280;40151;43.606;1.472;2023-02-21T04:11:44;99617.09;;;17.95;49.42
54236;BME280;40151;43.606;1.472;2023-02-21T04:14:09;99615.25;;;17.97;49.11
54236;BME280;40151;43.606;1.472;2023-02-21T04:16:35;99611.81;;;17.95;49.55
54236;BME280;40151;43.606;1.472;2023-02-21T04:19:00;99616.16;;;17.96;49.38
54236;BME280;40151;43.606;1.472;2023-02-21T04:21:26;99607.53;;;17.93;49.50
54236;BME280;40151;43.606;1.472;2023-02-21T04:23:51;99607.59;;;17.91;49.11
54236;BME280;40151;43.606;1.472;2023-02-21T04:26:16;99606.75;;;17.91;49.52
54236;BME280;40151;43.606;1.472;2023-02-21T04:28:42;99605.13;;;17.88;49.17
54236;BME280;40151;43.606;1.472;2023-02-21T04:31:07;99612.88;;;17.91;49.58
54236;BME280;40151;43.606;1.472;2023-02-21T04:33:33;99612.81;;;17.93;49.32
54236;BME280;40151;43.606;1.472;2023-02-21T04:35:58;99616.44;;;17.90;49.38
54236;BME280;40151;43.606;1.472;2023-02-21T04:38:23;99608.59;;;17.89;49.41
54236;BME280;40151;43.606;1.472;2023-02-21T04:40:49;99609.47;;;17.89;49.38
54236;BME280;40151;43.606;1.472;2023-02-21T04:43:14;99611.94;;;17.92;49.50
54236;BME280;40151;43.606;1.472;2023-02-21T04:45:39;99609.41;;;17.91;49.22
54236;BME280;40151;43.606;1.472;2023-02-21T04:48:05;99602.38;;;17.90;49.42
54236;BME280;40151;43.606;1.472;2023-02-21T04:50:30;99598.09;;;17.87;49.15
54236;BME280;40151;43.606;1.472;2023-02-21T04:52:56;99602.66;;;17.83;49.32
54236;BME280;40151;43.606;1.472;2023-02-21T04:55:21;99601.66;;;17.86;49.14
54236;BME280;40151;43.606;1.472;2023-02-21T04:57:47;99603.53;;;17.84;49.38
54236;BME280;40151;43.606;1.472;2023-02-21T05:00:13;99598.38;;;17.81;49.55
54236;BME280;40151;43.606;1.472;2023-02-21T05:02:42;99603.38;;;17.87;49.64
54236;BME280;40151;43.606;1.472;2023-02-21T05:05:08;99594.69;;;17.85;49.57
54236;BME280;40151;43.606;1.472;2023-02-21T05:07:33;99597.19;;;17.88;49.29
54236;BME280;40151;43.606;1.472;2023-02-21T05:09:59;99592.97;;;17.84;49.43
54236;BME280;40151;43.606;1.472;2023-02-21T05:12:24;99585.06;;;17.84;49.37
54236;BME280;40151;43.606;1.472;2023-02-21T05:14:50;99586.91;;;17.82;49.04
54236;BME280;40151;43.606;1.472;2023-02-21T05:17:15;99587.81;;;17.81;49.36
54236;BME280;40151;43.606;1.472;2023-02-21T05:19:40;99581.00;;;17.77;49.28
54236;BME280;40151;43.606;1.472;2023-02-21T05:22:06;99582.00;;;17.74;49.68
54236;BME280;40151;43.606;1.472;2023-02-21T05:24:32;99572.25;;;17.75;49.73
54236;BME280;40151;43.606;1.472;2023-02-21T05:26:58;99581.00;;;17.77;49.58
54236;BME280;40151;43.606;1.472;2023-02-21T05:29:24;99572.25;;;17.75;49.63
54236;BME280;40151;43.606;1.472;2023-02-21T05:31:50;99568.69;;;17.76;49.82
54236;BME280;40151;43.606;1.472;2023-02-21T05:34:15;99577.41;;;17.78;49.59
54236;BME280;40151;43.606;1.472;2023-02-21T05:36:43;99581.06;;;17.75;49.42
54236;BME280;40151;43.606;1.472;2023-02-21T05:39:09;99582.81;;;17.75;49.58
54236;BME280;40151;43.606;1.472;2023-02-21T05:41:35;99583.53;;;17.78;49.68
54236;BME280;40151;43.606;1.472;2023-02-21T05:44:02;99581.06;;;17.75;49.38
54236;BME280;40151;43.606;1.472;2023-02-21T05:46:30;99576.00;;;17.70;49.65
54236;BME280;40151;43.606;1.472;2023-02-21T05:48:59;99582.03;;;17.73;49.63
54236;BME280;40151;43.606;1.472;2023-02-21T05:51:26;99582.81;;;17.75;49.85
54236;BME280;40151;43.606;1.472;2023-02-21T05:53:52;99581.13;;;17.74;49.73
54236;BME280;40151;43.606;1.472;2023-02-21T05:56:19;99577.53;;;17.75;49.50
54236;BME280;40151;43.606;1.472;2023-02-21T05:58:45;99580.34;;;17.71;49.52
54236;BME280;40151;43.606;1.472;2023-02-21T06:01:11;99580.28;;;17.73;49.49
54236;BME280;40151;43.606;1.472;2023-02-21T06:03:36;99581.13;;;17.74;49.72
54236;BME280;40151;43.606;1.472;2023-02-21T06:06:02;99578.47;;;17.74;49.63
54236;BME280;40151;43.606;1.472;2023-02-21T06:08:28;99579.41;;;17.73;49.80
54236;BME280;40151;43.606;1.472;2023-02-21T06:10:54;99577.69;;;17.71;49.80
54236;BME280;40151;43.606;1.472;2023-02-21T06:13:19;99576.00;;;17.70;49.68
54236;BME280;40151;43.606;1.472;2023-02-21T06:15:45;99582.97;;;17.71;49.93
54236;BME280;40151;43.606;1.472;2023-02-21T06:18:14;99584.81;;;17.69;49.83
54236;BME280;40151;43.606;1.472;2023-02-21T06:20:40;99596.19;;;17.71;49.59
54236;BME280;40151;43.606;1.472;2023-02-21T06:23:06;99599.66;;;17.72;49.70
54236;BME280;40151;43.606;1.472;2023-02-21T06:25:31;99598.81;;;17.71;49.86
54236;BME280;40151;43.606;1.472;2023-02-21T06:27:57;99596.94;;;17.74;49.58
54236;BME280;40151;43.606;1.472;2023-02-21T06:30:23;99590.09;;;17.69;49.64
54236;BME280;40151;43.606;1.472;2023-02-21T06:32:48;99585.47;;;17.75;49.41
54236;BME280;40151;43.606;1.472;2023-02-21T06:35:14;99588.19;;;17.73;49.67
54236;BME280;40151;43.606;1.472;2023-02-21T06:37:39;99589.97;;;17.73;49.59
54236;BME280;40151;43.606;1.472;2023-02-21T06:40:05;99583.03;;;17.70;49.85
54236;BME280;40151;43.606;1.472;2023-02-21T06:42:31;99579.53;;;17.69;49.53
54236;BME280;40151;43.606;1.472;2023-02-21T06:44:56;99579.69;;;17.66;49.71
54236;BME280;40151;43.606;1.472;2023-02-21T06:47:22;99574.53;;;17.63;49.62
54236;BME280;40151;43.606;1.472;2023-02-21T06:49:47;99573.53;;;17.66;50.03
54236;BME280;40151;43.606;1.472;2023-02-21T06:52:13;99577.25;;;17.62;50.02
54236;BME280;40151;43.606;1.472;2023-02-21T06:54:39;99579.81;;;17.63;49.65
54236;BME280;40151;43.606;1.472;2023-02-21T06:57:05;99580.81;;;17.61;49.79
54236;BME280;40151;43.606;1.472;2023-02-21T06:59:31;99576.56;;;17.58;49.84
54236;BME280;40151;43.606;1.472;2023-02-21T07:01:56;99579.97;;;17.60;50.10
54236;BME280;40151;43.606;1.472;2023-02-21T07:04:23;99577.38;;;17.58;49.75
54236;BME280;40151;43.606;1.472;2023-02-21T07:06:49;99579.97;;;17.60;49.96
54236;BME280;40151;43.606;1.472;2023-02-21T07:09:14;99575.53;;;17.61;49.92
54236;BME280;40151;43.606;1.472;2023-02-21T07:11:40;99576.56;;;17.58;50.10
54236;BME280;40151;43.606;1.472;2023-02-21T07:14:05;99565.13;;;17.57;49.95
54236;BME280;40151;43.606;1.472;2023-02-21T07:16:31;99563.34;;;17.58;49.97
54236;BME280;40151;43.606;1.472;2023-02-21T07:18:56;99566.13;;;17.55;49.92
54236;BME280;40151;43.606;1.472;2023-02-21T07:21:22;99567.00;;;17.55;50.04
54236;BME280;40151;43.606;1.472;2023-02-21T07:23:49;99574.09;;;17.53;49.99
54236;BME280;40151;43.606;1.472;2023-02-21T07:26:15;99563.47;;;17.55;50.06
54236;BME280;40151;43.606;1.472;2023-02-21T07:28:41;99567.97;;;17.53;50.36
54236;BME280;40151;43.606;1.472;2023-02-21T07:31:06;99567.97;;;17.53;50.05
54236;BME280;40151;43.606;1.472;2023-02-21T07:33:32;99567.88;;;17.54;49.97
54236;BME280;40151;43.606;1.472;2023-02-21T07:35:58;99573.03;;;17.57;50.12
54236;BME280;40151;43.606;1.472;2023-02-21T07:38:26;99573.25;;;17.53;50.04
54236;BME280;40151;43.606;1.472;2023-02-21T07:40:58;99582.88;;;17.54;50.01
54236;BME280;40151;43.606;1.472;2023-02-21T07:43:28;99596.28;;;17.49;50.03
54236;BME280;40151;43.606;1.472;2023-02-21T07:45:55;99598.78;;;17.52;50.36
54236;BME280;40151;43.606;1.472;2023-02-21T07:48:20;99612.03;;;17.51;50.14
54236;BME280;40151;43.606;1.472;2023-02-21T07:50:46;99607.47;;;17.54;50.29
54236;BME280;40151;43.606;1.472;2023-02-21T07:53:13;99610.03;;;17.56;49.92
54236;BME280;40151;43.606;1.472;2023-02-21T07:55:39;99613.72;;;17.52;50.51
54236;BME280;40151;43.606;1.472;2023-02-21T07:58:05;99614.59;;;17.52;50.14
54236;BME280;40151;43.606;1.472;2023-02-21T08:00:31;99613.72;;;17.52;50.21
54236;BME280;40151;43.606;1.472;2023-02-21T08:02:56;99619.16;;;17.49;50.43
54236;BME280;40151;43.606;1.472;2023-02-21T08:05:22;99617.25;;;17.52;50.25
54236;BME280;40151;43.606;1.472;2023-02-21T08:07:48;99620.75;;;17.53;50.28
54236;BME280;40151;43.606;1.472;2023-02-21T08:10:20;99628.00;;;17.48;50.31
54236;BME280;40151;43.606;1.472;2023-02-21T08:12:46;99626.16;;;17.50;50.47
54236;BME280;40151;43.606;1.472;2023-02-21T08:15:12;99625.16;;;17.52;50.29
54236;BME280;40151;43.606;1.472;2023-02-21T08:17:37;99620.59;;;17.56;50.24
54236;BME280;40151;43.606;1.472;2023-02-21T08:20:03;99617.31;;;17.51;50.08
54236;BME280;40151;43.606;1.472;2023-02-21T08:22:30;99613.72;;;17.52;50.11
54236;BME280;40151;43.606;1.472;2023-02-21T08:24:55;99616.53;;;17.49;50.30
54236;BME280;40151;43.606;1.472;2023-02-21T08:27:21;99616.53;;;17.49;50.44
54236;BME280;40151;43.606;1.472;2023-02-21T08:29:49;99616.38;;;17.52;50.27
54236;BME280;40151;43.606;1.472;2023-02-21T08:32:15;99608.44;;;17.52;50.32
54236;BME280;40151;43.606;1.472;2023-02-21T08:34:43;99619.00;;;17.52;50.42
54236;BME280;40151;43.606;1.472;2023-02-21T08:37:09;99615.47;;;17.53;50.34
54236;BME280;40151;43.606;1.472;2023-02-21T08:39:45;99621.59;;;17.53;50.20
54236;BME280;40151;43.606;1.472;2023-02-21T08:42:12;99620.59;;;17.56;50.41
54236;BME280;40151;43.606;1.472;2023-02-21T08:44:38;99622.31;;;17.57;49.97
54236;BME280;40151;43.606;1.472;2023-02-21T08:47:03;99615.47;;;17.53;50.26
54236;BME280;40151;43.606;1.472;2023-02-21T08:49:28;99622.31;;;17.57;50.17
54236;BME280;40151;43.606;1.472;2023-02-21T08:51:54;99627.00;;;17.50;50.59
54236;BME280;40151;43.606;1.472;2023-02-21T08:54:19;99628.56;;;17.54;50.41
54236;BME280;40151;43.606;1.472;2023-02-21T08:56:45;99615.47;;;17.53;50.31
54236;BME280;40151;43.606;1.472;2023-02-21T08:59:10;99620.75;;;17.53;50.61
54236;BME280;40151;43.606;1.472;2023-02-21T09:01:36;99619.94;;;17.51;50.61
54236;BME280;40151;43.606;1.472;2023-02-21T09:04:05;99620.75;;;17.53;50.38
54236;BME280;40151;43.606;1.472;2023-02-21T09:06:30;99632.19;;;17.52;50.64
54236;BME280;40151;43.606;1.472;2023-02-21T09:08:56;99630.31;;;17.55;50.23
54236;BME280;40151;43.606;1.472;2023-02-21T09:11:22;99626.03;;;17.53;50.60
54236;BME280;40151;43.606;1.472;2023-02-21T09:13:47;99625.94;;;17.54;50.32
54236;BME280;40151;43.606;1.472;2023-02-21T09:16:13;99618.03;;;17.54;50.34
54236;BME280;40151;43.606;1.472;2023-02-21T09:18:38;99627.78;;;17.52;50.29
54236;BME280;40151;43.606;1.472;2023-02-21T09:21:05;99634.84;;;17.52;50.26
54236;BME280;40151;43.606;1.472;2023-02-21T09:23:31;99626.16;;;17.50;50.61
54236;BME280;40151;43.606;1.472;2023-02-21T09:25:56;99624.28;;;17.52;50.53
54236;BME280;40151;43.606;1.472;2023-02-21T09:28:22;99619.66;;;17.57;50.45
54236;BME280;40151;43.606;1.472;2023-02-21T09:30:48;99631.16;;;17.56;50.44
54236;BME280;40151;43.606;1.472;2023-02-21T09:33:14;99635.50;;;17.57;50.16
54236;BME280;40151;43.606;1.472;2023-02-21T09:35:40;99625.88;;;17.56;50.60
54236;BME280;40151;43.606;1.472;2023-02-21T09:38:06;99633.72;;;17.57;50.72
54236;BME280;40151;43.606;1.472;2023-02-21T09:43:00;99631.97;;;17.58;50.21
54236;BME280;40151;43.606;1.472;2023-02-21T09:45:30;99639.72;;;17.61;50.33
54236;BME280;40151;43.606;1.472;2023-02-21T09:48:01;99637.09;;;17.61;50.53
54236;BME280;40151;43.606;1.472;2023-02-21T09:50:32;99637.97;;;17.62;50.57
54236;BME280;40151;43.606;1.472;2023-02-21T09:52:59;99636.38;;;17.57;50.78
54236;BME280;40151;43.606;1.472;2023-02-21T09:55:35;99627.47;;;17.60;50.65
54236;BME280;40151;43.606;1.472;2023-02-21T09:58:04;99626.59;;;17.60;50.75
54236;BME280;40151;43.606;1.472;2023-02-21T10:00:35;99629.94;;;17.63;50.63
54236;BME280;40151;43.606;1.472;2023-02-21T10:03:09;99623.91;;;17.61;50.48
54236;BME280;40151;43.606;1.472;2023-02-21T10:06:17;99617.50;;;17.67;50.42
54236;BME280;40151;43.606;1.472;2023-02-21T10:09:00;99613.06;;;17.67;50.68
54236;BME280;40151;43.606;1.472;2023-02-21T10:16:55;99612.13;;;17.68;50.58
54236;BME280;40151;43.606;1.472;2023-02-21T10:19:22;99619.94;;;17.71;50.47
54236;BME280;40151;43.606;1.472;2023-02-21T10:21:52;99612.78;;;17.74;50.48
54236;BME280;40151;43.606;1.472;2023-02-21T10:24:22;99606.50;;;17.76;50.31
54236;BME280;40151;43.606;1.472;2023-02-21T10:27:11;99605.53;;;17.79;50.38
54236;BME280;40151;43.606;1.472;2023-02-21T10:32:23;99616.09;;;17.79;50.62
54236;BME280;40151;43.606;1.472;2023-02-21T10:34:50;99617.78;;;17.80;50.52
54236;BME280;40151;43.606;1.472;2023-02-21T10:43:08;99603.53;;;17.84;50.48
54236;BME280;40151;43.606;1.472;2023-02-21T10:45:39;99598.38;;;17.81;50.97
54236;BME280;40151;43.606;1.472;2023-02-21T10:48:09;99600.84;;;17.85;50.45
54236;BME280;40151;43.606;1.472;2023-02-21T10:58:49;99603.38;;;17.87;50.55
54236;BME280;40151;43.606;1.472;2023-02-21T11:03:50;99613.88;;;17.89;50.77
54236;BME280;40151;43.606;1.472;2023-02-21T11:06:39;99607.66;;;17.90;50.81
54236;BME280;40151;43.606;1.472;2023-02-21T11:09:32;99613.81;;;17.90;50.84
54236;BME280;40151;43.606;1.472;2023-02-21T11:12:15;99612.94;;;17.90;50.80
54236;BME280;40151;43.606;1.472;2023-02-21T11:17:16;99611.94;;;17.92;50.78
54236;BME280;40151;43.606;1.472;2023-02-21T11:27:30;99606.53;;;17.95;50.74
54236;BME280;40151;43.606;1.472;2023-02-21T11:29:58;99587.13;;;17.96;50.40
54236;BME280;40151;43.606;1.472;2023-02-21T11:32:33;99588.06;;;17.95;50.86
54236;BME280;40151;43.606;1.472;2023-02-21T11:37:52;99580.91;;;17.97;50.51
54236;BME280;40151;43.606;1.472;2023-02-21T11:43:20;99576.44;;;18.00;50.78
54236;BME280;40151;43.606;1.472;2023-02-21T11:48:18;99566.66;;;18.02;50.35
54236;BME280;40151;43.606;1.472;2023-02-21T11:50:52;99573.69;;;18.01;50.65
54236;BME280;40151;43.606;1.472;2023-02-21T11:53:24;99573.69;;;18.01;50.79
54236;BME280;40151;43.606;1.472;2023-02-21T11:58:33;99562.16;;;18.04;50.61
54236;BME280;40151;43.606;1.472;2023-02-21T12:01:06;99548.88;;;18.05;50.48
54236;BME280;40151;43.606;1.472;2023-02-21T12:11:40;99553.13;;;18.09;50.37
54236;BME280;40151;43.606;1.472;2023-02-21T12:14:31;99553.97;;;18.10;50.69
54236;BME280;40151;43.606;1.472;2023-02-21T12:17:31;99558.31;;;18.11;50.39
54236;BME280;40151;43.606;1.472;2023-02-21T12:20:23;99561.81;;;18.11;50.67
54236;BME280;40151;43.606;1.472;2023-02-21T12:25:40;99566.09;;;18.14;50.46
54236;BME280;40151;43.606;1.472;2023-02-21T12:42:05;99531.63;;;18.17;50.52
54236;BME280;40151;43.606;1.472;2023-02-21T12:49:43;99525.31;;;18.20;50.35
54236;BME280;40151;43.606;1.472;2023-02-21T12:52:31;99520.91;;;18.20;50.38
54236;BME280;40151;43.606;1.472;2023-02-21T12:55:22;99507.72;;;18.20;50.67
54236;BME280;40151;43.606;1.472;2023-02-21T12:58:02;99500.66;;;18.21;50.52
54236;BME280;40151;43.606;1.472;2023-02-21T13:00:38;99505.00;;;18.22;50.41
54236;BME280;40151;43.606;1.472;2023-02-21T13:05:50;99491.78;;;18.22;50.31
54236;BME280;40151;43.606;1.472;2023-02-21T13:08:43;99488.22;;;18.23;50.41
54236;BME280;40151;43.606;1.472;2023-02-21T13:11:21;99496.06;;;18.24;50.51
54236;BME280;40151;43.606;1.472;2023-02-21T13:13:50;99493.44;;;18.24;50.38
54236;BME280;40151;43.606;1.472;2023-02-21T13:16:16;99486.34;;;18.25;50.46
54236;BME280;40151;43.606;1.472;2023-02-21T13:18:56;99478.34;;;18.27;50.74
54236;BME280;40151;43.606;1.472;2023-02-21T13:21:46;99467.78;;;18.27;50.56
54236;BME280;40151;43.606;1.472;2023-02-21T13:29:35;99465.00;;;18.30;50.72
54236;BME280;40151;43.606;1.472;2023-02-21T13:32:05;99460.50;;;18.32;50.48
54236;BME280;40151;43.606;1.472;2023-02-21T13:34:37;99449.91;;;18.32;50.14
54236;BME280;40151;43.606;1.472;2023-02-21T13:37:06;99455.22;;;18.32;50.36
54236;BME280;40151;43.606;1.472;2023-02-21T13:39:34;99455.13;;;18.33;50.49
54236;BME280;40151;43.606;1.472;2023-02-21T13:42:08;99449.84;;;18.33;50.43
54236;BME280;40151;43.606;1.472;2023-02-21T13:44:38;99442.69;;;18.35;50.41
54236;BME280;40151;43.606;1.472;2023-02-21T13:47:13;99442.69;;;18.35;50.88
54236;BME280;40151;43.606;1.472;2023-02-21T13:49:56;99442.63;;;18.37;50.62
54236;BME280;40151;43.606;1.472;2023-02-21T14:02:59;99442.44;;;18.40;50.51
54236;BME280;40151;43.606;1.472;2023-02-21T14:06:00;99431.88;;;18.40;50.65
54236;BME280;40151;43.606;1.472;2023-02-21T14:10:54;99433.69;;;18.40;50.64
54236;BME280;40151;43.606;1.472;2023-02-21T14:21:14;99430.03;;;18.42;50.49
54236;BME280;40151;43.606;1.472;2023-02-21T14:31:48;99428.16;;;18.44;50.68
54236;BME280;40151;43.606;1.472;2023-02-21T14:34:21;99427.41;;;18.42;50.72
54236;BME280;40151;43.606;1.472;2023-02-21T14:36:49;99421.19;;;18.43;50.40
54236;BME280;40151;43.606;1.472;2023-02-21T14:39:16;99422.88;;;18.44;50.64
54236;BME280;40151;43.606;1.472;2023-02-21T14:52:32;99424.69;;;18.44;50.64
54236;BME280;40151;43.606;1.472;2023-02-21T15:00:24;99414.97;;;18.44;50.74
54236;BME280;40151;43.606;1.472;2023-02-21T15:03:12;99417.59;;;18.44;50.43
54236;BME280;40151;43.606;1.472;2023-02-21T15:05:57;99418.47;;;18.45;50.75
54236;BME280;40151;43.606;1.472;2023-02-21T15:08:25;99421.94;;;18.45;50.49
54236;BME280;40151;43.606;1.472;2023-02-21T15:10:54;99412.31;;;18.44;50.70
54236;BME280;40151;43.606;1.472;2023-02-21T15:16:02;99403.38;;;18.47;50.65
54236;BME280;40151;43.606;1.472;2023-02-21T15:18:30;99404.25;;;18.47;50.72
54236;BME280;40151;43.606;1.472;2023-02-21T15:21:16;99413.88;;;18.48;50.70
54236;BME280;40151;43.606;1.472;2023-02-21T15:23:44;99413.88;;;18.48;50.55
54236;BME280;40151;43.606;1.472;2023-02-21T15:26:28;99410.28;;;18.49;50.58
54236;BME280;40151;43.606;1.472;2023-02-21T15:29:11;99424.44;;;18.48;50.67
54236;BME280;40151;43.606;1.472;2023-02-21T15:31:52;99426.16;;;18.49;50.44
54236;BME280;40151;43.606;1.472;2023-02-21T15:34:22;99427.84;;;18.50;50.60
54236;BME280;40151;43.606;1.472;2023-02-21T15:36:54;99422.56;;;18.50;50.64
54236;BME280;40151;43.606;1.472;2023-02-21T15:39:27;99417.28;;;18.50;50.56
54236;BME280;40151;43.606;1.472;2023-02-21T15:41:54;99408.41;;;18.51;50.56
54236;BME280;40151;43.606;1.472;2023-02-21T15:44:31;99411.06;;;18.51;50.75
54236;BME280;40151;43.606;1.472;2023-02-21T15:47:00;99417.13;;;18.54;50.69
54236;BME280;40151;43.606;1.472;2023-02-21T15:49:30;99410.16;;;18.52;50.61
54236;BME280;40151;43.606;1.472;2023-02-21T15:52:01;99411.84;;;18.54;50.58
54236;BME280;40151;43.606;1.472;2023-02-21T15:54:35;99416.28;;;18.53;50.28
54236;BME280;40151;43.606;1.472;2023-02-21T15:59:36;99422.31;;;18.55;50.54
54236;BME280;40151;43.606;1.472;2023-02-21T16:04:44;99429.41;;;18.55;50.43
54236;BME280;40151;43.606;1.472;2023-02-21T16:07:20;99414.41;;;18.55;50.42
54236;BME280;40151;43.606;1.472;2023-02-21T16:09:49;99417.91;;;18.56;50.70
54236;BME280;40151;43.606;1.472;2023-02-21T16:19:39;99416.28;;;18.53;50.61
54236;BME280;40151;43.606;1.472;2023-02-21T16:22:20;99415.34;;;18.54;50.83
54236;BME280;40151;43.606;1.472;2023-02-21T16:24:47;99413.69;;;18.51;50.63
54236;BME280;40151;43.606;1.472;2023-02-21T16:27:15;99413.63;;;18.53;50.61
54236;BME280;40151;43.606;1.472;2023-02-21T16:29:41;99411.06;;;18.51;50.86
54236;BME280;40151;43.606;1.472;2023-02-21T16:32:16;99411.00;;;18.53;50.47
54236;BME280;40151;43.606;1.472;2023-02-21T16:34:43;99412.88;;;18.51;50.70